sensor_id;sensor_type;location;lat;lon;timestamp;pressure;altitude;pressure_sealevel;temperature;humidity
20228;BME280;12195;55.790;37.572;2023-03-14T00:01:18;99524.41;;;-1.71;70.57
20228;BME280;12195;55.790;37.572;2023-03-14T00:03:52;99517.48;;;-1.64;71.11
20228;BME280;12195;55.790;37.572;2023-03-14T00:06:24;99510.61;;;-1.59;71.46
20228;BME280;12195;55.790;37.572;2023-03-14T00:08:57;99503.70;;;-1.56;71.47
20228;BME280;12195;55.790;37.572;2023-03-14T00:11:30;99502.82;;;-1.55;70.60
20228;BME280;12195;55.790;37.572;2023-03-14T00:14:02;99495.06;;;-1.50;70.40
20228;BME280;12195;55.790;37.572;2023-03-14T00:16:35;99496.74;;;-1.46;70.91
20228;BME280;12195;55.790;37.572;2023-03-14T00:19:07;99482.11;;;-1.43;70.10
20228;BME280;12195;55.790;37.572;2023-03-14T00:21:39;99479.47;;;-1.35;69.91
20228;BME280;12195;55.790;37.572;2023-03-14T00:24:11;99476.83;;;-1.31;69.51
20228;BME280;12195;55.790;37.572;2023-03-14T00:26:43;99463.85;;;-1.23;69.80
20228;BME280;12195;55.790;37.572;2023-03-14T00:29:15;99450.08;;;-1.19;70.07
20228;BME280;12195;55.790;37.572;2023-03-14T00:31:48;99454.36;;;-1.17;69.39
20228;BME280;12195;55.790;37.572;2023-03-14T00:34:20;99450.03;;;-1.15;69.02
20228;BME280;12195;55.790;37.572;2023-03-14T00:36:52;99444.88;;;-1.15;68.86
20228;BME280;12195;55.790;37.572;2023-03-14T00:39:24;99441.41;;;-1.12;69.02
20228;BME280;12195;55.790;37.572;2023-03-14T00:41:56;99433.64;;;-1.08;68.99
20228;BME280;12195;55.790;37.572;2023-03-14T00:44:28;99431.06;;;-1.08;69.24
20228;BME280;12195;55.790;37.572;2023-03-14T00:47:00;99439.56;;;-1.01;70.91
20228;BME280;12195;55.790;37.572;2023-03-14T00:49:32;99441.22;;;-0.97;70.93
20228;BME280;12195;55.790;37.572;2023-03-14T00:52:04;99444.60;;;-0.94;71.28
20228;BME280;12195;55.790;37.572;2023-03-14T00:54:36;99440.30;;;-0.92;70.90
20228;BME280;12195;55.790;37.572;2023-03-14T00:57:08;99429.93;;;-0.89;70.61
20228;BME280;12195;55.790;37.572;2023-03-14T00:59:40;99417.86;;;-0.84;71.11
20228;BME280;12195;55.790;37.572;2023-03-14T01:02:13;99419.45;;;-0.77;71.68
20228;BME280;12195;55.790;37.572;2023-03-14T01:04:49;99410.88;;;-0.76;71.06
20228;BME280;12195;55.790;37.572;2023-03-14T01:07:21;99409.09;;;-0.72;71.66
20228;BME280;12195;55.790;37.572;2023-03-14T01:09:53;99421.06;;;-0.68;72.18
20228;BME280;12195;55.790;37.572;2023-03-14T01:12:25;99414.20;;;-0.68;72.26
20228;BME280;12195;55.790;37.572;2023-03-14T01:14:58;99412.47;;;-0.69;72.71
20228;BME280;12195;55.790;37.572;2023-03-14T01:17:31;99423.62;;;-0.67;73.19
20228;BME280;12195;55.790;37.572;2023-03-14T01:20:03;99416.80;;;-0.71;72.65
20228;BME280;12195;55.790;37.572;2023-03-14T01:22:38;99416.80;;;-0.71;72.89
20228;BME280;12195;55.790;37.572;2023-03-14T01:25:11;99403.06;;;-0.71;73.27
20228;BME280;12195;55.790;37.572;2023-03-14T01:27:43;99391.70;;;-0.60;74.20
20228;BME280;12195;55.790;37.572;2023-03-14T01:30:16;99374.69;;;-0.70;73.69
20228;BME280;12195;55.790;37.572;2023-03-14T01:32:48;99357.55;;;-0.72;73.59
20228;BME280;12195;55.790;37.572;2023-03-14T01:35:20;99356.67;;;-0.71;73.73
20228;BME280;12195;55.790;37.572;2023-03-14T01:37:53;99344.66;;;-0.71;74.08
20228;BME280;12195;55.790;37.572;2023-03-14T01:40:25;99338.61;;;-0.70;74.18
20228;BME280;12195;55.790;37.572;2023-03-14T01:43:05;99334.25;;;-0.66;74.57
20228;BME280;12195;55.790;37.572;2023-03-14T01:48:20;99334.80;;;-0.48;75.57
20228;BME280;12195;55.790;37.572;2023-03-14T01:50:52;99317.76;;;-0.55;75.31
20228;BME280;12195;55.790;37.572;2023-03-14T01:53:25;99310.88;;;-0.56;75.47
20228;BME280;12195;55.790;37.572;2023-03-14T01:55:58;99310.83;;;-0.53;75.82
20228;BME280;12195;55.790;37.572;2023-03-14T01:58:30;99327.12;;;-0.49;75.97
20228;BME280;12195;55.790;37.572;2023-03-14T02:01:07;99310.74;;;-0.47;76.04
20228;BME280;12195;55.790;37.572;2023-03-14T02:03:46;99306.38;;;-0.43;76.37
20228;BME280;12195;55.790;37.572;2023-03-14T02:06:21;99303.62;;;-0.34;76.72
20228;BME280;12195;55.790;37.572;2023-03-14T02:08:54;99302.80;;;-0.35;76.76
20228;BME280;12195;55.790;37.572;2023-03-14T02:11:29;99289.04;;;-0.35;77.31
20228;BME280;12195;55.790;37.572;2023-03-14T02:14:07;99295.89;;;-0.34;77.45
20228;BME280;12195;55.790;37.572;2023-03-14T02:17:00;99291.55;;;-0.31;77.58
20228;BME280;12195;55.790;37.572;2023-03-14T02:19:57;99273.42;;;-0.28;77.77
20228;BME280;12195;55.790;37.572;2023-03-14T02:22:38;99259.61;;;-0.25;77.85
20228;BME280;12195;55.790;37.572;2023-03-14T02:25:17;99269.05;;;-0.23;77.97
20228;BME280;12195;55.790;37.572;2023-03-14T02:27:50;99263.01;;;-0.22;78.13
20228;BME280;12195;55.790;37.572;2023-03-14T02:30:25;99250.87;;;-0.17;78.29
20228;BME280;12195;55.790;37.572;2023-03-14T02:33:36;99238.77;;;-0.15;78.44
20228;BME280;12195;55.790;37.572;2023-03-14T02:35:48;99246.46;;;-0.12;78.56
20228;BME280;12195;55.790;37.572;2023-03-14T02:38:35;99221.53;;;-0.11;78.74
20228;BME280;12195;55.790;37.572;2023-03-14T02:41:08;99205.08;;;-0.06;78.91
20228;BME280;12195;55.790;37.572;2023-03-14T02:43:42;99225.61;;;-0.01;79.16
20228;BME280;12195;55.790;37.572;2023-03-14T02:46:18;99207.64;;;-0.04;79.24
20228;BME280;12195;55.790;37.572;2023-03-14T02:48:55;99208.41;;;-0.01;79.58
20228;BME280;12195;55.790;37.572;2023-03-14T02:51:28;99199.81;;;-0.01;79.60
20228;BME280;12195;55.790;37.572;2023-03-14T02:54:00;99196.31;;;0.01;79.75
20228;BME280;12195;55.790;37.572;2023-03-14T02:56:34;99190.30;;;0.03;79.90
20228;BME280;12195;55.790;37.572;2023-03-14T02:59:07;99207.30;;;0.11;80.09
20228;BME280;12195;55.790;37.572;2023-03-14T03:01:40;99204.74;;;0.09;80.07
20228;BME280;12195;55.790;37.572;2023-03-14T03:04:13;99208.98;;;0.12;80.28
20228;BME280;12195;55.790;37.572;2023-03-14T03:06:47;99207.27;;;0.13;80.31
20228;BME280;12195;55.790;37.572;2023-03-14T03:09:22;99214.95;;;0.16;80.50
20228;BME280;12195;55.790;37.572;2023-03-14T03:11:54;99221.72;;;0.21;80.60
20228;BME280;12195;55.790;37.572;2023-03-14T03:14:27;99211.42;;;0.20;80.61
20228;BME280;12195;55.790;37.572;2023-03-14T03:17:01;99202.80;;;0.21;80.71
20228;BME280;12195;55.790;37.572;2023-03-14T03:19:33;99198.26;;;0.32;80.87
20228;BME280;12195;55.790;37.572;2023-03-14T03:22:05;99196.69;;;0.25;80.79
20228;BME280;12195;55.790;37.572;2023-03-14T03:24:37;99187.16;;;0.27;80.90
20228;BME280;12195;55.790;37.572;2023-03-14T03:27:10;99189.53;;;0.37;81.13
20228;BME280;12195;55.790;37.572;2023-03-14T03:29:43;99163.72;;;0.37;81.21
20228;BME280;12195;55.790;37.572;2023-03-14T03:32:15;99169.65;;;0.41;81.24
20228;BME280;12195;55.790;37.572;2023-03-14T03:34:48;99161.02;;;0.42;81.29
20228;BME280;12195;55.790;37.572;2023-03-14T03:37:20;99161.02;;;0.42;81.33
20228;BME280;12195;55.790;37.572;2023-03-14T03:39:52;99136.03;;;0.44;81.42
20228;BME280;12195;55.790;37.572;2023-03-14T03:42:27;99130.80;;;0.45;81.46
20228;BME280;12195;55.790;37.572;2023-03-14T03:45:02;99143.55;;;0.53;81.62
20228;BME280;12195;55.790;37.572;2023-03-14T03:47:35;99141.80;;;0.53;81.64
20228;BME280;12195;55.790;37.572;2023-03-14T03:50:08;99112.56;;;0.53;81.68
20228;BME280;12195;55.790;37.572;2023-03-14T03:52:40;99121.11;;;0.55;81.71
20228;BME280;12195;55.790;37.572;2023-03-14T03:55:13;99118.45;;;0.58;81.79
20228;BME280;12195;55.790;37.572;2023-03-14T03:57:45;99114.12;;;0.60;81.84
20228;BME280;12195;55.790;37.572;2023-03-14T04:00:18;99110.58;;;0.64;81.90
20228;BME280;12195;55.790;37.572;2023-03-14T04:02:51;99115.58;;;0.70;81.98
20228;BME280;12195;55.790;37.572;2023-03-14T04:05:24;99116.37;;;0.72;81.96
20228;BME280;12195;55.790;37.572;2023-03-14T04:07:57;99103.39;;;0.75;82.02
20228;BME280;12195;55.790;37.572;2023-03-14T04:10:39;99108.48;;;0.78;82.12
20228;BME280;12195;55.790;37.572;2023-03-14T04:13:08;99105.87;;;0.79;82.13
20228;BME280;12195;55.790;37.572;2023-03-14T04:15:42;99096.30;;;0.83;82.22
20228;BME280;12195;55.790;37.572;2023-03-14T04:18:18;99103.08;;;0.87;82.30
20228;BME280;12195;55.790;37.572;2023-03-14T04:20:57;99093.57;;;0.89;82.41
20228;BME280;12195;55.790;37.572;2023-03-14T04:23:31;99102.11;;;0.91;82.44
20228;BME280;12195;55.790;37.572;2023-03-14T04:26:04;99080.41;;;0.98;82.55
20228;BME280;12195;55.790;37.572;2023-03-14T04:28:37;99069.17;;;0.99;82.57
20228;BME280;12195;55.790;37.572;2023-03-14T04:31:17;99070.75;;;1.04;82.73
20228;BME280;12195;55.790;37.572;2023-03-14T04:33:51;99064.23;;;1.22;83.03
20228;BME280;12195;55.790;37.572;2023-03-14T04:36:26;99068.77;;;1.14;82.55
20228;BME280;12195;55.790;37.572;2023-03-14T04:39:00;99066.14;;;1.15;82.61
20228;BME280;12195;55.790;37.572;2023-03-14T04:41:34;99058.20;;;1.21;82.87
20228;BME280;12195;55.790;37.572;2023-03-14T04:44:08;99058.39;;;1.15;82.82
20228;BME280;12195;55.790;37.572;2023-03-14T04:46:40;99055.73;;;1.17;82.99
20228;BME280;12195;55.790;37.572;2023-03-14T04:49:14;99048.80;;;1.19;83.08
20228;BME280;12195;55.790;37.572;2023-03-14T04:51:48;99033.22;;;1.22;83.21
20228;BME280;12195;55.790;37.572;2023-03-14T04:54:23;99033.03;;;1.28;83.33
20228;BME280;12195;55.790;37.572;2023-03-14T04:56:57;99027.86;;;1.28;83.34
20228;BME280;12195;55.790;37.572;2023-03-14T04:59:31;99040.70;;;1.31;83.36
20228;BME280;12195;55.790;37.572;2023-03-14T05:02:06;99033.70;;;1.34;83.40
20228;BME280;12195;55.790;37.572;2023-03-14T05:04:45;99029.23;;;1.39;83.47
20228;BME280;12195;55.790;37.572;2023-03-14T05:07:19;99014.50;;;1.43;83.50
20228;BME280;12195;55.790;37.572;2023-03-14T05:09:53;99003.25;;;1.44;83.51
20228;BME280;12195;55.790;37.572;2023-03-14T05:12:27;99003.17;;;1.47;83.49
20228;BME280;12195;55.790;37.572;2023-03-14T05:15:02;99003.95;;;1.49;83.50
20228;BME280;12195;55.790;37.572;2023-03-14T05:17:40;98978.95;;;1.49;83.50
20228;BME280;12195;55.790;37.572;2023-03-14T05:20:17;99000.39;;;1.53;83.48
20228;BME280;12195;55.790;37.572;2023-03-14T05:22:56;98991.69;;;1.55;83.53
20228;BME280;12195;55.790;37.572;2023-03-14T05:25:33;99005.44;;;1.57;83.55
20228;BME280;12195;55.790;37.572;2023-03-14T05:28:13;98995.66;;;1.67;83.60
20228;BME280;12195;55.790;37.572;2023-03-14T05:30:56;99001.70;;;1.66;83.55
20228;BME280;12195;55.790;37.572;2023-03-14T05:33:30;98991.97;;;1.74;83.61
20228;BME280;12195;55.790;37.572;2023-03-14T05:36:17;99015.30;;;1.72;83.55
20228;BME280;12195;55.790;37.572;2023-03-14T05:39:00;99010.98;;;1.73;83.61
20228;BME280;12195;55.790;37.572;2023-03-14T05:41:41;99025.56;;;1.75;83.66
20228;BME280;12195;55.790;37.572;2023-03-14T05:44:20;98984.98;;;1.77;83.80
20228;BME280;12195;55.790;37.572;2023-03-14T05:46:57;98999.56;;;1.80;83.77
20228;BME280;12195;55.790;37.572;2023-03-14T05:49:43;99013.94;;;1.88;83.87
20228;BME280;12195;55.790;37.572;2023-03-14T05:52:23;98999.36;;;1.86;83.82
20228;BME280;12195;55.790;37.572;2023-03-14T05:55:05;99020.67;;;1.94;83.91
20228;BME280;12195;55.790;37.572;2023-03-14T05:57:40;99022.47;;;1.92;83.88
20228;BME280;12195;55.790;37.572;2023-03-14T06:00:26;99032.53;;;2.01;84.02
20228;BME280;12195;55.790;37.572;2023-03-14T06:02:59;99029.05;;;2.02;83.97
20228;BME280;12195;55.790;37.572;2023-03-14T06:05:33;99024.42;;;2.11;84.21
20228;BME280;12195;55.790;37.572;2023-03-14T06:08:07;99029.69;;;2.08;83.89
20228;BME280;12195;55.790;37.572;2023-03-14T06:10:40;99015.97;;;2.06;83.91
20228;BME280;12195;55.790;37.572;2023-03-14T06:13:13;99004.58;;;2.12;84.03
20228;BME280;12195;55.790;37.572;2023-03-14T06:15:46;99012.17;;;2.16;84.07
20228;BME280;12195;55.790;37.572;2023-03-14T06:18:19;98993.91;;;2.21;84.19
20228;BME280;12195;55.790;37.572;2023-03-14T06:20:56;98987.43;;;2.34;84.34
20228;BME280;12195;55.790;37.572;2023-03-14T06:23:29;98982.34;;;2.31;84.27
20228;BME280;12195;55.790;37.572;2023-03-14T06:26:04;98988.20;;;2.36;84.25
20228;BME280;12195;55.790;37.572;2023-03-14T06:28:36;98988.88;;;2.42;84.25
20228;BME280;12195;55.790;37.572;2023-03-14T06:31:11;98988.75;;;2.45;84.33
20228;BME280;12195;55.790;37.572;2023-03-14T06:33:47;98980.74;;;2.53;84.24
20228;BME280;12195;55.790;37.572;2023-03-14T06:36:20;98985.66;;;2.60;84.10
20228;BME280;12195;55.790;37.572;2023-03-14T06:38:53;98995.05;;;2.63;84.00
20228;BME280;12195;55.790;37.572;2023-03-14T06:41:25;99003.64;;;2.65;83.95
20228;BME280;12195;55.790;37.572;2023-03-14T06:44:00;98986.33;;;2.65;83.75
20228;BME280;12195;55.790;37.572;2023-03-14T06:46:32;98995.64;;;2.71;83.88
20228;BME280;12195;55.790;37.572;2023-03-14T06:49:05;98986.09;;;2.73;84.04
20228;BME280;12195;55.790;37.572;2023-03-14T06:51:39;98986.86;;;2.75;83.99
20228;BME280;12195;55.790;37.572;2023-03-14T06:54:13;98983.94;;;2.84;83.97
20228;BME280;12195;55.790;37.572;2023-03-14T06:56:46;98984.61;;;2.89;83.47
20228;BME280;12195;55.790;37.572;2023-03-14T06:59:18;98984.56;;;2.90;83.33
20228;BME280;12195;55.790;37.572;2023-03-14T07:01:51;98985.38;;;2.92;83.28
20228;BME280;12195;55.790;37.572;2023-03-14T07:04:23;98977.41;;;2.97;83.14
20228;BME280;12195;55.790;37.572;2023-03-14T07:06:56;98971.22;;;3.01;83.06
20228;BME280;12195;55.790;37.572;2023-03-14T07:09:29;98981.48;;;3.04;83.01
20228;BME280;12195;55.790;37.572;2023-03-14T07:12:02;98980.53;;;3.06;82.85
20228;BME280;12195;55.790;37.572;2023-03-14T07:14:36;98983.64;;;3.16;83.17
20228;BME280;12195;55.790;37.572;2023-03-14T07:17:08;98983.30;;;3.25;83.17
20228;BME280;12195;55.790;37.572;2023-03-14T07:19:41;98990.81;;;3.32;82.94
20228;BME280;12195;55.790;37.572;2023-03-14T07:22:14;98989.71;;;3.38;82.73
20228;BME280;12195;55.790;37.572;2023-03-14T07:24:47;98993.97;;;3.40;82.54
20228;BME280;12195;55.790;37.572;2023-03-14T07:27:20;99000.70;;;3.44;82.43
20228;BME280;12195;55.790;37.572;2023-03-14T07:29:53;99008.33;;;3.49;82.29
20228;BME280;12195;55.790;37.572;2023-03-14T07:32:25;98999.62;;;3.50;82.07
20228;BME280;12195;55.790;37.572;2023-03-14T07:34:58;99005.57;;;3.53;82.07
20228;BME280;12195;55.790;37.572;2023-03-14T07:37:30;99010.56;;;3.58;82.48
20228;BME280;12195;55.790;37.572;2023-03-14T07:40:05;99008.72;;;3.61;82.51
20228;BME280;12195;55.790;37.572;2023-03-14T07:42:40;99004.91;;;3.70;82.63
20228;BME280;12195;55.790;37.572;2023-03-14T07:45:20;99009.74;;;3.79;82.50
20228;BME280;12195;55.790;37.572;2023-03-14T07:47:54;98999.55;;;3.74;82.21
20228;BME280;12195;55.790;37.572;2023-03-14T07:50:30;98999.36;;;3.79;82.14
20228;BME280;12195;55.790;37.572;2023-03-14T07:53:03;98999.80;;;3.90;82.26
20228;BME280;12195;55.790;37.572;2023-03-14T07:55:35;98998.77;;;3.94;82.31
20228;BME280;12195;55.790;37.572;2023-03-14T07:58:08;99002.08;;;3.97;81.79
20228;BME280;12195;55.790;37.572;2023-03-14T08:00:40;98977.88;;;3.97;81.75
20228;BME280;12195;55.790;37.572;2023-03-14T08:03:12;98980.96;;;4.06;81.77
20228;BME280;12195;55.790;37.572;2023-03-14T08:05:47;98985.52;;;4.21;81.70
20228;BME280;12195;55.790;37.572;2023-03-14T08:08:20;98987.83;;;4.29;81.37
20228;BME280;12195;55.790;37.572;2023-03-14T08:10:52;98992.52;;;4.41;80.91
20228;BME280;12195;55.790;37.572;2023-03-14T08:13:25;98999.12;;;4.48;79.88
20228;BME280;12195;55.790;37.572;2023-03-14T08:15:59;98993.81;;;4.51;79.07
20228;BME280;12195;55.790;37.572;2023-03-14T08:18:31;99005.36;;;4.44;78.64
20228;BME280;12195;55.790;37.572;2023-03-14T08:21:04;99001.87;;;4.45;78.10
20228;BME280;12195;55.790;37.572;2023-03-14T08:23:37;99007.78;;;4.48;77.95
20228;BME280;12195;55.790;37.572;2023-03-14T08:26:10;99003.29;;;4.52;78.27
20228;BME280;12195;55.790;37.572;2023-03-14T08:28:42;99006.47;;;4.58;77.22
20228;BME280;12195;55.790;37.572;2023-03-14T08:31:15;99021.25;;;4.58;77.30
20228;BME280;12195;55.790;37.572;2023-03-14T08:33:47;99003.42;;;4.69;75.66
20228;BME280;12195;55.790;37.572;2023-03-14T08:36:22;99012.14;;;4.68;76.67
20228;BME280;12195;55.790;37.572;2023-03-14T08:38:55;99011.96;;;4.72;75.38
20228;BME280;12195;55.790;37.572;2023-03-14T08:41:28;99011.10;;;4.72;76.69
20228;BME280;12195;55.790;37.572;2023-03-14T08:44:01;99001.41;;;4.75;76.56
20228;BME280;12195;55.790;37.572;2023-03-14T08:46:35;99013.46;;;4.78;77.02
20228;BME280;12195;55.790;37.572;2023-03-14T08:49:08;99008.16;;;4.79;77.04
20228;BME280;12195;55.790;37.572;2023-03-14T08:51:41;99009.02;;;4.80;77.37
20228;BME280;12195;55.790;37.572;2023-03-14T08:54:13;99007.22;;;4.82;77.32
20228;BME280;12195;55.790;37.572;2023-03-14T08:56:45;99001.92;;;4.83;77.83
20228;BME280;12195;55.790;37.572;2023-03-14T08:59:18;98993.94;;;4.88;77.70
20228;BME280;12195;55.790;37.572;2023-03-14T09:01:50;99000.41;;;4.98;77.30
20228;BME280;12195;55.790;37.572;2023-03-14T09:04:22;98995.82;;;5.04;77.65
20228;BME280;12195;55.790;37.572;2023-03-14T09:06:55;98978.02;;;5.14;77.08
20228;BME280;12195;55.790;37.572;2023-03-14T09:09:29;98990.48;;;5.26;76.05
20228;BME280;12195;55.790;37.572;2023-03-14T09:12:04;98983.11;;;5.35;75.06
20228;BME280;12195;55.790;37.572;2023-03-14T09:14:37;98980.25;;;5.41;74.45
20228;BME280;12195;55.790;37.572;2023-03-14T09:17:09;98985.16;;;5.47;74.55
20228;BME280;12195;55.790;37.572;2023-03-14T09:19:41;98979.76;;;5.52;73.19
20228;BME280;12195;55.790;37.572;2023-03-14T09:22:14;98995.15;;;5.56;73.30
20228;BME280;12195;55.790;37.572;2023-03-14T09:24:46;98987.00;;;5.64;71.99
20228;BME280;12195;55.790;37.572;2023-03-14T09:27:18;98987.63;;;5.69;71.71
20228;BME280;12195;55.790;37.572;2023-03-14T09:29:51;98978.76;;;5.73;72.25
20228;BME280;12195;55.790;37.572;2023-03-14T09:32:23;98982.73;;;5.80;71.64
20228;BME280;12195;55.790;37.572;2023-03-14T09:34:57;98994.60;;;5.87;72.52
20228;BME280;12195;55.790;37.572;2023-03-14T09:37:30;99010.95;;;5.91;71.72
20228;BME280;12195;55.790;37.572;2023-03-14T09:40:02;99009.89;;;5.95;72.18
20228;BME280;12195;55.790;37.572;2023-03-14T09:42:38;99005.64;;;5.92;70.99
20228;BME280;12195;55.790;37.572;2023-03-14T09:45:35;99005.02;;;5.87;70.56
20228;BME280;12195;55.790;37.572;2023-03-14T09:47:52;99001.36;;;5.91;69.68
20228;BME280;12195;55.790;37.572;2023-03-14T09:50:39;99000.80;;;5.85;69.77
20228;BME280;12195;55.790;37.572;2023-03-14T09:53:07;99002.41;;;5.87;69.82
20228;BME280;12195;55.790;37.572;2023-03-14T09:55:42;99003.20;;;5.89;70.38
20228;BME280;12195;55.790;37.572;2023-03-14T09:58:17;99000.23;;;5.97;70.48
20228;BME280;12195;55.790;37.572;2023-03-14T10:00:53;99005.84;;;6.06;69.04
20228;BME280;12195;55.790;37.572;2023-03-14T10:03:33;99005.41;;;6.15;68.09
20228;BME280;12195;55.790;37.572;2023-03-14T10:06:13;98989.63;;;6.18;69.19
20228;BME280;12195;55.790;37.572;2023-03-14T10:08:46;99006.49;;;6.28;67.92
20228;BME280;12195;55.790;37.572;2023-03-14T10:11:19;98997.67;;;6.31;67.57
20228;BME280;12195;55.790;37.572;2023-03-14T10:14:07;99003.53;;;6.36;67.38
20228;BME280;12195;55.790;37.572;2023-03-14T10:16:43;98987.32;;;6.29;67.85
20228;BME280;12195;55.790;37.572;2023-03-14T10:19:16;98969.77;;;6.16;68.58
20228;BME280;12195;55.790;37.572;2023-03-14T10:21:53;98965.36;;;5.99;70.42
20228;BME280;12195;55.790;37.572;2023-03-14T10:24:29;98977.84;;;5.93;70.45
20228;BME280;12195;55.790;37.572;2023-03-14T10:27:05;98978.15;;;5.87;70.92
20228;BME280;12195;55.790;37.572;2023-03-14T10:29:51;98975.75;;;5.82;71.79
20228;BME280;12195;55.790;37.572;2023-03-14T10:32:19;98988.88;;;5.79;71.97
20228;BME280;12195;55.790;37.572;2023-03-14T10:37:55;98997.91;;;5.72;73.13
20228;BME280;12195;55.790;37.572;2023-03-14T10:40:38;98987.26;;;5.76;73.56
20228;BME280;12195;55.790;37.572;2023-03-14T10:43:13;98982.50;;;5.86;74.21
20228;BME280;12195;55.790;37.572;2023-03-14T10:46:06;98967.22;;;5.97;74.25
20228;BME280;12195;55.790;37.572;2023-03-14T10:48:36;98957.03;;;6.10;74.24
20228;BME280;12195;55.790;37.572;2023-03-14T10:54:01;98953.22;;;6.34;72.19
20228;BME280;12195;55.790;37.572;2023-03-14T10:56:36;98967.86;;;6.53;71.17
20228;BME280;12195;55.790;37.572;2023-03-14T10:59:14;98960.56;;;6.60;70.90
20228;BME280;12195;55.790;37.572;2023-03-14T11:07:39;98954.92;;;7.01;70.27
20228;BME280;12195;55.790;37.572;2023-03-14T11:10:15;98946.81;;;7.23;69.09
20228;BME280;12195;55.790;37.572;2023-03-14T11:15:51;98927.53;;;7.56;66.50
20228;BME280;12195;55.790;37.572;2023-03-14T11:18:46;98927.78;;;7.67;63.35
20228;BME280;12195;55.790;37.572;2023-03-14T11:34:53;98956.95;;;7.75;58.09
20228;BME280;12195;55.790;37.572;2023-03-14T11:37:26;98963.85;;;7.76;58.50
20228;BME280;12195;55.790;37.572;2023-03-14T11:40:17;98958.53;;;7.93;59.52
20228;BME280;12195;55.790;37.572;2023-03-14T11:45:34;98966.64;;;7.89;57.31
20228;BME280;12195;55.790;37.572;2023-03-14T11:51:11;98963.95;;;7.90;56.77
20228;BME280;12195;55.790;37.572;2023-03-14T11:54:14;98967.50;;;7.89;56.98
20228;BME280;12195;55.790;37.572;2023-03-14T11:59:18;98971.09;;;7.87;56.72
20228;BME280;12195;55.790;37.572;2023-03-14T12:01:55;98977.84;;;7.91;56.23
20228;BME280;12195;55.790;37.572;2023-03-14T12:07:09;98969.81;;;8.09;56.39
20228;BME280;12195;55.790;37.572;2023-03-14T12:09:38;98977.44;;;7.98;55.74
20228;BME280;12195;55.790;37.572;2023-03-14T12:12:13;98966.05;;;7.99;54.96
20228;BME280;12195;55.790;37.572;2023-03-14T12:14:54;98979.19;;;7.98;55.01
20228;BME280;12195;55.790;37.572;2023-03-14T12:17:41;98976.82;;;7.93;54.95
20228;BME280;12195;55.790;37.572;2023-03-14T12:20:24;98982.74;;;7.97;55.37
20228;BME280;12195;55.790;37.572;2023-03-14T12:23:02;98986.79;;;8.02;54.80
20228;BME280;12195;55.790;37.572;2023-03-14T12:25:36;98975.23;;;8.06;55.91
20228;BME280;12195;55.790;37.572;2023-03-14T12:28:19;98964.50;;;8.11;54.96
20228;BME280;12195;55.790;37.572;2023-03-14T12:30:52;98973.03;;;8.14;55.37
20228;BME280;12195;55.790;37.572;2023-03-14T12:33:29;98970.30;;;8.16;54.37
20228;BME280;12195;55.790;37.572;2023-03-14T12:36:03;98972.42;;;8.09;54.78
20228;BME280;12195;55.790;37.572;2023-03-14T12:38:58;98977.93;;;8.05;54.73
20228;BME280;12195;55.790;37.572;2023-03-14T12:41:46;98980.79;;;8.00;56.04
20228;BME280;12195;55.790;37.572;2023-03-14T12:49:56;98979.03;;;8.01;56.49
20228;BME280;12195;55.790;37.572;2023-03-14T12:52:44;98985.52;;;7.94;57.57
20228;BME280;12195;55.790;37.572;2023-03-14T12:55:10;98979.70;;;7.89;58.25
20228;BME280;12195;55.790;37.572;2023-03-14T12:57:47;98995.47;;;7.87;58.10
20228;BME280;12195;55.790;37.572;2023-03-14T13:00:21;98979.05;;;7.85;58.66
20228;BME280;12195;55.790;37.572;2023-03-14T13:03:00;98974.56;;;7.87;59.14
20228;BME280;12195;55.790;37.572;2023-03-14T13:05:29;98983.26;;;7.88;60.07
20228;BME280;12195;55.790;37.572;2023-03-14T13:08:05;98977.34;;;7.84;59.62
20228;BME280;12195;55.790;37.572;2023-03-14T13:10:42;98978.27;;;7.83;58.96
20228;BME280;12195;55.790;37.572;2023-03-14T13:13:24;98978.52;;;7.79;59.01
20228;BME280;12195;55.790;37.572;2023-03-14T13:16:01;98979.53;;;7.76;58.72
20228;BME280;12195;55.790;37.572;2023-03-14T13:18:41;98988.22;;;7.77;58.67
20228;BME280;12195;55.790;37.572;2023-03-14T13:21:19;98985.45;;;7.80;58.13
20228;BME280;12195;55.790;37.572;2023-03-14T13:24:04;98964.63;;;7.78;57.92
20228;BME280;12195;55.790;37.572;2023-03-14T13:26:41;98965.37;;;7.80;56.94
20228;BME280;12195;55.790;37.572;2023-03-14T13:29:22;98967.66;;;7.86;56.94
20228;BME280;12195;55.790;37.572;2023-03-14T13:31:58;98976.24;;;7.88;56.74
20228;BME280;12195;55.790;37.572;2023-03-14T13:34:32;98967.30;;;7.92;55.07
20228;BME280;12195;55.790;37.572;2023-03-14T13:37:13;98966.37;;;7.93;55.68
20228;BME280;12195;55.790;37.572;2023-03-14T13:39:40;98972.37;;;7.95;55.42
20228;BME280;12195;55.790;37.572;2023-03-14T13:42:14;98969.51;;;8.00;53.69
20228;BME280;12195;55.790;37.572;2023-03-14T13:44:47;98980.95;;;7.97;53.26
20228;BME280;12195;55.790;37.572;2023-03-14T13:47:21;98957.70;;;7.93;53.64
20228;BME280;12195;55.790;37.572;2023-03-14T13:49:54;98969.92;;;7.92;54.39
20228;BME280;12195;55.790;37.572;2023-03-14T13:52:29;98970.85;;;7.91;53.77
20228;BME280;12195;55.790;37.572;2023-03-14T13:55:03;98972.73;;;7.89;53.12
20228;BME280;12195;55.790;37.572;2023-03-14T13:57:55;98987.47;;;7.90;53.14
20228;BME280;12195;55.790;37.572;2023-03-14T14:00:27;98985.68;;;7.91;53.22
20228;BME280;12195;55.790;37.572;2023-03-14T14:03:01;98984.94;;;7.89;52.82
20228;BME280;12195;55.790;37.572;2023-03-14T14:05:34;98981.55;;;7.87;52.55
20228;BME280;12195;55.790;37.572;2023-03-14T14:08:11;98982.76;;;7.81;52.61
20228;BME280;12195;55.790;37.572;2023-03-14T14:10:46;98984.52;;;7.81;53.02
20228;BME280;12195;55.790;37.572;2023-03-14T14:13:21;98988.88;;;7.80;52.96
20228;BME280;12195;55.790;37.572;2023-03-14T14:15:58;98981.13;;;7.79;53.31
20228;BME280;12195;55.790;37.572;2023-03-14T14:18:35;98991.69;;;7.77;52.74
20228;BME280;12195;55.790;37.572;2023-03-14T14:21:09;98989.23;;;7.74;52.77
20228;BME280;12195;55.790;37.572;2023-03-14T14:23:43;98989.39;;;7.71;52.50
20228;BME280;12195;55.790;37.572;2023-03-14T14:26:19;98989.55;;;7.68;52.82